CHICAGO AURORA MUNICIPAL, IL, United States (KARR) 41-46N 088-28W 215M
Wind: Calm:0
Visibility: 7 mile(s):0
Sky conditions: clear
Temperature: -4.0 F (-20.0 C)
Dew Point: -8.0 F (-22.2 C)
Relative Humidity: 82%
Pressure (altimeter): 30.22 in. Hg (1023 hPa)
ob: KARR 291352Z 00000KT 7SM CLR M20/M22 A3022 RMK AO2 SLP255 T12001222
Raw METAR:KARR 291352Z 00000KT 7SM CLR M20/M22 A3022 RMK AO2 SLP255 T12001222
cycle: 14
Back to top

CHICAGO/WEST CH DUPAGE, IL, United States (KDPA) 41-54N 88-15W 230M
Wind: from the SSW (200 degrees) at 7 MPH (6 KT):0
Visibility: 10 mile(s):0
Sky conditions: overcast
Temperature: 5.0 F (-15.0 C)
Windchill: -7 F (-22 C):2
Dew Point: -0.0 F (-17.8 C)
Relative Humidity: 79%
Pressure (altimeter): 30.21 in. Hg (1023 hPa)
ob: KDPA 291352Z 20006KT 10SM OVC031 M15/M18 A3021 RMK AO2 SLP248 T11501178
Raw METAR:KDPA 291352Z 20006KT 10SM OVC031 M15/M18 A3021 RMK AO2 SLP248 T11501178
cycle: 14
Back to top

De Kalb, De Kalb Taylor Municipal Airport, IL, United States (KDKB) 41-55-55N 088-42-30W
Wind: from the SSW (200 degrees) at 5 MPH (4 KT):0
Visibility: 10 mile(s):0
Sky conditions: overcast
Temperature: 6.6 F (-14.1 C)
Windchill: -2 F (-19 C):1
Dew Point: -0.4 F (-18.0 C)
Relative Humidity: 72%
Pressure (altimeter): 30.19 in. Hg (1022 hPa)
ob: KDKB 291355Z AUTO 20004KT 10SM OVC028 M14/M18 A3019 RMK AO2 T11411180
Raw METAR:KDKB 291355Z AUTO 20004KT 10SM OVC028 M14/M18 A3019 RMK AO2 T11411180
cycle: 14
Back to top

Joliet, Joliet Regional Airport, IL, United States (KJOT) 41-31-05N 088-10-31W
Wind: from the SSW (200 degrees) at 3 MPH (3 KT):0
Visibility: 10 mile(s):0
Sky conditions: clear
Temperature: 2.5 F (-16.4 C)
Dew Point: -1.3 F (-18.5 C)
Relative Humidity: 83%
Pressure (altimeter): 30.26 in. Hg (1024 hPa)
ob: KJOT 291355Z AUTO 20003KT 10SM CLR M16/M18 A3026 RMK AO2 T11641185
Raw METAR:KJOT 291355Z AUTO 20003KT 10SM CLR M16/M18 A3026 RMK AO2 T11641185
cycle: 14
Back to top

Kankakee, Greater Kankakee Airport, IL, United States (KIKK) 41-04-17N 087-50-47W
Wind: Calm:0
Visibility: 10 mile(s):0
Sky conditions: clear
Temperature: 1 F (-17 C)
Dew Point: -2 F (-19 C)
Relative Humidity: 84%
Pressure (altimeter): 30.27 in. Hg (1025 hPa)
ob: KIKK 291358Z AUTO 00000KT 10SM CLR M17/M19 A3027 RMK AO2
Raw METAR:KIKK 291358Z AUTO 00000KT 10SM CLR M17/M19 A3027 RMK AO2
cycle: 14
Back to top

Morris, Morris Municipal-James R Washburn Field Airport, IL, United States (KC09) 41-25-31N 088-25-07W
Wind: Calm:0
Visibility: 10 mile(s):0
Sky conditions: clear
Temperature: 1.8 F (-16.8 C)
Dew Point: -1.3 F (-18.5 C)
Relative Humidity: 86%
Pressure (altimeter): 30.25 in. Hg (1024 hPa)
ob: KC09 291355Z AUTO 00000KT 10SM CLR M17/M18 A3025 RMK AO2 T11681185
Raw METAR:KC09 291355Z AUTO 00000KT 10SM CLR M17/M18 A3025 RMK AO2 T11681185
cycle: 14
Back to top

Peru, Illinois Valley Regional-Walter A Duncan Field Airport, IL, United States (KVYS) 41-21-07N 089-09-11W
Wind: from the SSE (160 degrees) at 6 MPH (5 KT):0
Visibility: 10 mile(s):0
Sky conditions: clear
Temperature: 7.2 F (-13.8 C)
Windchill: -4 F (-20 C):1
Dew Point: 1.9 F (-16.7 C)
Relative Humidity: 78%
Pressure (altimeter): 30.23 in. Hg (1023 hPa)
ob: KVYS 291355Z AUTO 16005KT 10SM CLR M14/M17 A3023 RMK AO2 T11381167
Raw METAR:KVYS 291355Z AUTO 16005KT 10SM CLR M14/M17 A3023 RMK AO2 T11381167
cycle: 14
Back to top

Rochelle, Rochelle Municipal-Koritz Field Airport, IL, United States (KRPJ) 41-53-35N 089-04-42W
Wind: from the SSW (200 degrees) at 6 MPH (5 KT):0
Visibility: 10 mile(s):0
Sky conditions: overcast
Temperature: 7.2 F (-13.8 C)
Windchill: -4 F (-20 C):1
Dew Point: 0.9 F (-17.3 C)
Relative Humidity: 74%
Pressure (altimeter): 30.21 in. Hg (1023 hPa)
ob: KRPJ 291355Z AUTO 20005KT 10SM OVC027 M14/M17 A3021 RMK AO2 T11381173
Raw METAR:KRPJ 291355Z AUTO 20005KT 10SM OVC027 M14/M17 A3021 RMK AO2 T11381173
cycle: 14
Back to top